Flight Track Log - Related Links

Times and Time Zones

All times are in EDT time to prevent confusion due to time zone crossing. See the EJA982 flight status page for this flight to view local times or setup timezone preferences in your user account.

Time Position Orientation Groundspeed Altitude Reporting Facility
EDT Latitude Longitude Course Direction KTS MPH feet Rate Location/Type
Sun 10:34:47 AM 30.4331 -89.0831 86° East 213 245 2,400  Level Houston Center
Sun 10:35:49 AM 30.4744 -89.0106 56° Northeast 305 351 7,100 3,677 Climbing Houston Center
Sun 10:36:51 AM 30.5136 -88.9050 67° East 344 396 10,000 3,171 Climbing Houston Center
Sun 10:37:52 AM 30.5608 -88.7831 66° East 394 453 13,600 3,148 Climbing Houston Center
Sun 10:38:53 AM 30.6211 -88.6267 66° East 434 499 16,400 2,390 Climbing Houston Center
Sun 10:39:55 AM 30.6731 -88.4917 66° East 454 522 18,500 2,049 Climbing Houston Center
Sun 10:40:00 AM 30.7167 -88.3491 86° East  Level FlightAware Approximate
Sun 10:40:56 AM 30.7222 -88.3522 68° East 467 537 20,600  Level Houston Center
Sun 10:41:58 AM 30.7347 -88.1983 85° East 488 562 22,700 2,098 Climbing Houston Center
Sun 10:42:59 AM 30.7458 -88.0361 85° East 493 567 24,900 2,098 Climbing Houston Center
Sun 10:44:01 AM 30.7567 -87.8725 86° East 506 582 27,000 2,195 Climbing Houston Center
Sun 10:45:02 AM 30.7672 -87.6792 86° East 503 579 29,400 2,281 Climbing Jacksonville Center
Sun 10:46:02 AM 30.7800 -87.5081 85° East 513 590 31,600 1,800 Climbing Jacksonville Center
Sun 10:47:02 AM 30.7903 -87.3344 86° East 525 604 33,000 700 Climbing Jacksonville Center
Sun 10:48:02 AM 30.8008 -87.1489 86° East 552 635 33,000  Level Jacksonville Center
Sun 10:49:02 AM 30.8114 -86.9536 86° East 578 665 33,000  Level Jacksonville Center
Sun 10:50:02 AM 30.8258 -86.7558 85° East 600 690 33,000  Level Jacksonville Center
Sun 10:51:02 AM 30.8256 -86.5550 90° East 608 700 33,000  Level Jacksonville Center
Sun 10:52:02 AM 30.8206 -86.3614 92° East 608 700 33,000  Level Jacksonville Center
Sun 10:53:02 AM 30.8153 -86.1678 92° East 608 700 33,000  Level Jacksonville Center
Sun 10:54:02 AM 30.8097 -85.9739 92° East 608 700 33,000  Level Jacksonville Center
Sun 10:55:02 AM 30.8075 -85.7997 91° East 608 700 33,000  Level Jacksonville Center
Sun 10:56:02 AM 30.8033 -85.6086 91° East 602 693 33,000  Level Jacksonville Center
Sun 10:57:02 AM 30.7989 -85.4175 92° East 597 687 33,000  Level Jacksonville Center
Sun 10:58:02 AM 30.7942 -85.2264 92° East 587 676 33,000  Level Jacksonville Center
Sun 10:59:02 AM 30.7661 -85.0419 100° East 587 676 33,000  Level Jacksonville Center
Sun 11:00:02 AM 30.7125 -84.8714 110° East 568 654 33,000  Level Jacksonville Center
Sun 11:01:02 AM 30.6608 -84.6917 108° East 568 654 33,000  Level Jacksonville Center
Sun 11:02:02 AM 30.6383 -84.5078 98° East 573 659 33,000  Level Jacksonville Center
Sun 11:03:02 AM 30.6136 -84.3047 98° East 573 659 33,000 -500 Level Jacksonville Center
Sun 11:04:02 AM 30.5947 -84.1258 97° East 568 654 32,000 -1,934 Descending Jacksonville Center
Sun 11:05:03 AM 30.5753 -83.9469 97° East 562 647 29,100 -2,900 Descending Jacksonville Center
Sun 11:06:02 AM 30.5536 -83.7706 98° East 562 647 26,200 -2,571 Descending Jacksonville Center
Sun 11:07:02 AM 30.5422 -83.6233 95° East 541 623 24,000 -1,100 Descending Jacksonville Center
Sun 11:08:02 AM 30.5325 -83.4544 94° East 529 609 24,000 -950 Level Jacksonville Center
Sun 11:09:02 AM 30.5289 -83.2928 91° East 513 590 22,100 -1,500 Descending Jacksonville Center
Sun 11:10:02 AM 30.5231 -83.1264 92° East 513 590 21,000 -550 Descending Jacksonville Center
Sun 11:11:02 AM 30.5192 -82.9650 92° East 513 590 21,000 -1,339 Level Jacksonville Center
Sun 11:12:03 AM 30.5128 -82.8081 93° East 502 578 18,300 -2,550 Descending Jacksonville Center
Sun 11:13:02 AM 30.5086 -82.6539 92° East 487 560 15,900 -2,471 Descending Jacksonville Center
Sun 11:13:45 AM 30.5125 -82.5453 88° East 433 498 14,100 -2,200 Descending Jacksonville Center
Sun 11:14:02 AM 30.5186 -82.5189 75° East 449 517 13,700 -2,384 Descending Jacksonville Center
Sun 11:14:58 AM 30.5661 -82.3811 68° East 442 509 11,200 -1,333 Descending Jacksonville Center
Sun 11:15:59 AM 30.5675 -82.2436 89° East 438 504 11,100 -49 Descending Jacksonville Center
Sun 11:17:00 AM 30.5583 -82.1014 94° East 433 498 11,100 -195 Level Jacksonville Center
Sun 11:18:02 AM 30.5533 -81.9783 93° East 418 481 10,700 -887 Descending Jacksonville Center
Sun 11:18:55 AM 30.5483 -81.8697 93° East 324 373 9,400 -1,500 Descending Jacksonville Center
Sun 11:20:02 AM 30.5539 -81.7636 86° East 299 344 7,700 -1,574 Descending Jacksonville Center
Sun 11:20:57 AM 30.5614 -81.6792 84° East 286 329 6,200 -1,655 Descending Jacksonville Center
Sun 11:21:58 AM 30.5336 -81.6000 112° Southeast 274 315 4,500 -1,525 Descending Jacksonville Center
Sun 11:22:59 AM 30.4806 -81.5381 135° Southeast 252 290 3,100 -689 Descending Jacksonville Center
Sun 11:24:00 AM 30.4406 -81.5047 144° Southeast 158 182 3,100 -49 Level Jacksonville Center
Sun 11:25:01 AM 30.4014 -81.5439 221° Southwest 170 196 3,000 -541 Descending Jacksonville Center
Sun 11:26:02 AM 30.4122 -81.5942 284° West 134 154 2,000 -828 Descending Jacksonville Center
Sun 11:26:57 AM 30.4356 -81.6278 309° West 146 168 1,400 -738 Descending Jacksonville Center
Sun 11:28:00 AM 30.4833 -81.6833 311° West  Level FlightAware Approximate
Sun 11:28:04 AM 30.4653 -81.6658 311° West 144 166 500  Level Jacksonville Center
Sun 11:30:00 AM 30.4833 -81.6833 311° West  Level FlightAware Approximate
Sun 11:37:00 AM 30.4941 -81.6879 311° West  Level Estimated

Login

Don't have an account? Register now (free) for customized features, flight alerts, and more!